sensor_id;sensor_type;location;lat;lon;timestamp;P1;durP1;ratioP1;P2;durP2;ratioP2
75984;SDS011;65033;44.660;37.758;2023-03-01T00:00:13;3.72;;;3.38;;
75984;SDS011;65033;44.660;37.758;2023-03-01T00:01:19;3.53;;;3.00;;
75984;SDS011;65033;44.660;37.758;2023-03-01T00:02:23;4.43;;;3.33;;
75984;SDS011;65033;44.660;37.758;2023-03-01T00:03:27;3.83;;;3.40;;
75984;SDS011;65033;44.660;37.758;2023-03-01T00:04:30;4.05;;;3.42;;
75984;SDS011;65033;44.660;37.758;2023-03-01T00:05:33;3.97;;;3.50;;
75984;SDS011;65033;44.660;37.758;2023-03-01T00:06:37;4.32;;;3.67;;
75984;SDS011;65033;44.660;37.758;2023-03-01T00:07:40;4.50;;;3.67;;
75984;SDS011;65033;44.660;37.758;2023-03-01T00:08:44;4.20;;;3.17;;
75984;SDS011;65033;44.660;37.758;2023-03-01T00:09:47;5.05;;;3.78;;
75984;SDS011;65033;44.660;37.758;2023-03-01T00:11:00;4.63;;;3.63;;
75984;SDS011;65033;44.660;37.758;2023-03-01T00:12:05;4.18;;;3.50;;
75984;SDS011;65033;44.660;37.758;2023-03-01T00:13:09;3.78;;;3.40;;
75984;SDS011;65033;44.660;37.758;2023-03-01T00:14:13;4.00;;;3.35;;
75984;SDS011;65033;44.660;37.758;2023-03-01T00:15:17;4.28;;;3.33;;
75984;SDS011;65033;44.660;37.758;2023-03-01T00:16:22;3.72;;;3.03;;
75984;SDS011;65033;44.660;37.758;2023-03-01T00:17:27;4.40;;;3.58;;
75984;SDS011;65033;44.660;37.758;2023-03-01T00:18:31;3.75;;;3.20;;
75984;SDS011;65033;44.660;37.758;2023-03-01T00:19:34;4.50;;;3.53;;
75984;SDS011;65033;44.660;37.758;2023-03-01T00:20:38;4.15;;;3.30;;
75984;SDS011;65033;44.660;37.758;2023-03-01T00:21:41;4.20;;;3.80;;
75984;SDS011;65033;44.660;37.758;2023-03-01T00:22:45;4.32;;;3.25;;
75984;SDS011;65033;44.660;37.758;2023-03-01T00:23:49;3.90;;;3.50;;
75984;SDS011;65033;44.660;37.758;2023-03-01T00:24:53;3.63;;;3.13;;
75984;SDS011;65033;44.660;37.758;2023-03-01T00:25:56;3.75;;;3.33;;
75984;SDS011;65033;44.660;37.758;2023-03-01T00:27:01;4.70;;;3.65;;
75984;SDS011;65033;44.660;37.758;2023-03-01T00:28:05;3.50;;;3.15;;
75984;SDS011;65033;44.660;37.758;2023-03-01T00:29:08;4.45;;;3.50;;
75984;SDS011;65033;44.660;37.758;2023-03-01T00:30:12;4.70;;;3.50;;
75984;SDS011;65033;44.660;37.758;2023-03-01T00:31:16;4.10;;;3.47;;
75984;SDS011;65033;44.660;37.758;2023-03-01T00:32:21;5.20;;;3.63;;
75984;SDS011;65033;44.660;37.758;2023-03-01T00:33:24;3.72;;;3.20;;
75984;SDS011;65033;44.660;37.758;2023-03-01T00:34:28;4.28;;;3.25;;
75984;SDS011;65033;44.660;37.758;2023-03-01T00:35:31;4.07;;;3.25;;
75984;SDS011;65033;44.660;37.758;2023-03-01T00:36:36;4.32;;;3.80;;
75984;SDS011;65033;44.660;37.758;2023-03-01T00:37:39;4.30;;;3.28;;
75984;SDS011;65033;44.660;37.758;2023-03-01T00:38:44;4.53;;;3.60;;
75984;SDS011;65033;44.660;37.758;2023-03-01T00:39:48;4.53;;;3.40;;
75984;SDS011;65033;44.660;37.758;2023-03-01T00:40:51;6.45;;;3.55;;
75984;SDS011;65033;44.660;37.758;2023-03-01T00:41:56;3.72;;;3.33;;
75984;SDS011;65033;44.660;37.758;2023-03-01T00:43:01;4.85;;;3.63;;
75984;SDS011;65033;44.660;37.758;2023-03-01T00:44:05;4.20;;;3.33;;
75984;SDS011;65033;44.660;37.758;2023-03-01T00:45:10;4.22;;;3.50;;
75984;SDS011;65033;44.660;37.758;2023-03-01T00:46:16;4.15;;;3.35;;
75984;SDS011;65033;44.660;37.758;2023-03-01T00:47:21;3.95;;;3.38;;
75984;SDS011;65033;44.660;37.758;2023-03-01T00:48:24;4.00;;;3.38;;
75984;SDS011;65033;44.660;37.758;2023-03-01T00:49:27;4.43;;;3.42;;
75984;SDS011;65033;44.660;37.758;2023-03-01T00:50:31;4.50;;;4.03;;
75984;SDS011;65033;44.660;37.758;2023-03-01T00:51:34;4.32;;;3.75;;
75984;SDS011;65033;44.660;37.758;2023-03-01T00:52:38;4.18;;;3.53;;
75984;SDS011;65033;44.660;37.758;2023-03-01T00:53:41;5.43;;;3.83;;
75984;SDS011;65033;44.660;37.758;2023-03-01T00:54:45;4.38;;;3.28;;
75984;SDS011;65033;44.660;37.758;2023-03-01T00:55:49;4.07;;;3.55;;
75984;SDS011;65033;44.660;37.758;2023-03-01T00:56:52;4.43;;;3.72;;
75984;SDS011;65033;44.660;37.758;2023-03-01T00:57:55;4.18;;;3.78;;
75984;SDS011;65033;44.660;37.758;2023-03-01T00:59:00;4.57;;;3.78;;
75984;SDS011;65033;44.660;37.758;2023-03-01T01:00:05;4.10;;;3.55;;
75984;SDS011;65033;44.660;37.758;2023-03-01T01:01:14;4.03;;;3.35;;
75984;SDS011;65033;44.660;37.758;2023-03-01T01:02:21;9.73;;;4.25;;
75984;SDS011;65033;44.660;37.758;2023-03-01T01:03:25;5.68;;;4.07;;
75984;SDS011;65033;44.660;37.758;2023-03-01T01:04:29;4.00;;;3.45;;
75984;SDS011;65033;44.660;37.758;2023-03-01T01:05:34;3.90;;;3.50;;
75984;SDS011;65033;44.660;37.758;2023-03-01T01:06:38;4.53;;;4.05;;
75984;SDS011;65033;44.660;37.758;2023-03-01T01:07:45;3.80;;;3.38;;
75984;SDS011;65033;44.660;37.758;2023-03-01T01:08:49;5.07;;;3.80;;
75984;SDS011;65033;44.660;37.758;2023-03-01T01:09:53;4.10;;;3.45;;
75984;SDS011;65033;44.660;37.758;2023-03-01T01:10:56;4.97;;;3.88;;
75984;SDS011;65033;44.660;37.758;2023-03-01T01:12:00;4.38;;;3.55;;
75984;SDS011;65033;44.660;37.758;2023-03-01T01:13:03;3.97;;;3.58;;
75984;SDS011;65033;44.660;37.758;2023-03-01T01:14:08;4.00;;;3.55;;
75984;SDS011;65033;44.660;37.758;2023-03-01T01:15:12;4.05;;;3.20;;
75984;SDS011;65033;44.660;37.758;2023-03-01T01:16:19;4.63;;;4.03;;
75984;SDS011;65033;44.660;37.758;2023-03-01T01:17:24;5.32;;;3.78;;
75984;SDS011;65033;44.660;37.758;2023-03-01T01:18:27;5.40;;;4.10;;
75984;SDS011;65033;44.660;37.758;2023-03-01T01:19:31;3.70;;;3.35;;
75984;SDS011;65033;44.660;37.758;2023-03-01T01:20:35;4.10;;;3.55;;
75984;SDS011;65033;44.660;37.758;2023-03-01T01:21:39;3.97;;;3.55;;
75984;SDS011;65033;44.660;37.758;2023-03-01T01:22:45;4.57;;;3.67;;
75984;SDS011;65033;44.660;37.758;2023-03-01T01:23:49;3.90;;;3.45;;
75984;SDS011;65033;44.660;37.758;2023-03-01T01:24:53;4.28;;;3.78;;
75984;SDS011;65033;44.660;37.758;2023-03-01T01:26:06;4.68;;;4.13;;
75984;SDS011;65033;44.660;37.758;2023-03-01T01:27:10;4.15;;;3.15;;
75984;SDS011;65033;44.660;37.758;2023-03-01T01:28:13;4.47;;;3.90;;
75984;SDS011;65033;44.660;37.758;2023-03-01T01:29:18;4.80;;;3.92;;
75984;SDS011;65033;44.660;37.758;2023-03-01T01:30:21;4.38;;;3.67;;
75984;SDS011;65033;44.660;37.758;2023-03-01T01:31:25;4.97;;;3.70;;
75984;SDS011;65033;44.660;37.758;2023-03-01T01:32:31;4.13;;;3.72;;
75984;SDS011;65033;44.660;37.758;2023-03-01T01:33:34;4.10;;;3.70;;
75984;SDS011;65033;44.660;37.758;2023-03-01T01:34:39;4.00;;;3.28;;
75984;SDS011;65033;44.660;37.758;2023-03-01T01:35:44;4.32;;;3.80;;
75984;SDS011;65033;44.660;37.758;2023-03-01T01:36:48;4.28;;;3.63;;
75984;SDS011;65033;44.660;37.758;2023-03-01T01:37:52;4.70;;;4.00;;
75984;SDS011;65033;44.660;37.758;2023-03-01T01:38:55;4.00;;;3.60;;
75984;SDS011;65033;44.660;37.758;2023-03-01T01:40:00;5.95;;;4.18;;
75984;SDS011;65033;44.660;37.758;2023-03-01T01:41:06;4.25;;;3.50;;
75984;SDS011;65033;44.660;37.758;2023-03-01T01:42:11;4.47;;;3.78;;
75984;SDS011;65033;44.660;37.758;2023-03-01T01:43:20;5.28;;;3.55;;
75984;SDS011;65033;44.660;37.758;2023-03-01T01:44:26;4.97;;;4.05;;
75984;SDS011;65033;44.660;37.758;2023-03-01T01:45:32;5.13;;;3.75;;
75984;SDS011;65033;44.660;37.758;2023-03-01T01:46:37;4.10;;;3.63;;
75984;SDS011;65033;44.660;37.758;2023-03-01T01:47:43;4.45;;;3.50;;
75984;SDS011;65033;44.660;37.758;2023-03-01T01:48:52;3.92;;;3.53;;
75984;SDS011;65033;44.660;37.758;2023-03-01T01:49:58;4.63;;;3.42;;
75984;SDS011;65033;44.660;37.758;2023-03-01T01:51:01;4.20;;;3.60;;
75984;SDS011;65033;44.660;37.758;2023-03-01T01:52:07;4.72;;;3.78;;
75984;SDS011;65033;44.660;37.758;2023-03-01T01:53:14;3.53;;;3.10;;
75984;SDS011;65033;44.660;37.758;2023-03-01T01:54:21;3.83;;;3.42;;
75984;SDS011;65033;44.660;37.758;2023-03-01T01:55:28;4.88;;;4.00;;
75984;SDS011;65033;44.660;37.758;2023-03-01T01:56:32;4.85;;;3.90;;
75984;SDS011;65033;44.660;37.758;2023-03-01T01:57:36;4.38;;;3.53;;
75984;SDS011;65033;44.660;37.758;2023-03-01T01:58:41;4.82;;;3.83;;
75984;SDS011;65033;44.660;37.758;2023-03-01T01:59:48;4.57;;;3.83;;
75984;SDS011;65033;44.660;37.758;2023-03-01T02:00:55;3.97;;;3.58;;
75984;SDS011;65033;44.660;37.758;2023-03-01T02:02:00;5.25;;;3.90;;
75984;SDS011;65033;44.660;37.758;2023-03-01T02:03:07;4.28;;;3.88;;
75984;SDS011;65033;44.660;37.758;2023-03-01T02:04:12;4.35;;;3.47;;
75984;SDS011;65033;44.660;37.758;2023-03-01T02:05:17;5.35;;;4.03;;
75984;SDS011;65033;44.660;37.758;2023-03-01T02:06:28;4.38;;;3.80;;
75984;SDS011;65033;44.660;37.758;2023-03-01T02:07:34;4.15;;;3.55;;
75984;SDS011;65033;44.660;37.758;2023-03-01T02:08:38;4.60;;;3.58;;
75984;SDS011;65033;44.660;37.758;2023-03-01T02:09:46;4.15;;;3.60;;
75984;SDS011;65033;44.660;37.758;2023-03-01T02:10:51;4.72;;;3.83;;
75984;SDS011;65033;44.660;37.758;2023-03-01T02:11:55;4.15;;;3.50;;
75984;SDS011;65033;44.660;37.758;2023-03-01T02:13:00;4.55;;;3.72;;
75984;SDS011;65033;44.660;37.758;2023-03-01T02:14:04;4.82;;;3.75;;
75984;SDS011;65033;44.660;37.758;2023-03-01T02:15:09;4.50;;;3.80;;
75984;SDS011;65033;44.660;37.758;2023-03-01T02:16:14;4.88;;;3.72;;
75984;SDS011;65033;44.660;37.758;2023-03-01T02:17:18;3.75;;;3.38;;
75984;SDS011;65033;44.660;37.758;2023-03-01T02:18:23;4.57;;;4.18;;
75984;SDS011;65033;44.660;37.758;2023-03-01T02:19:30;4.05;;;3.58;;
75984;SDS011;65033;44.660;37.758;2023-03-01T02:20:47;4.30;;;3.50;;
75984;SDS011;65033;44.660;37.758;2023-03-01T02:22:00;4.07;;;3.28;;
75984;SDS011;65033;44.660;37.758;2023-03-01T02:23:08;4.78;;;3.55;;
75984;SDS011;65033;44.660;37.758;2023-03-01T02:24:15;3.97;;;3.47;;
75984;SDS011;65033;44.660;37.758;2023-03-01T02:25:29;5.35;;;3.50;;
75984;SDS011;65033;44.660;37.758;2023-03-01T02:26:39;4.15;;;3.72;;
75984;SDS011;65033;44.660;37.758;2023-03-01T02:27:47;4.47;;;3.50;;
75984;SDS011;65033;44.660;37.758;2023-03-01T02:28:56;4.45;;;3.58;;
75984;SDS011;65033;44.660;37.758;2023-03-01T02:30:01;4.93;;;3.85;;
75984;SDS011;65033;44.660;37.758;2023-03-01T02:31:05;4.85;;;4.03;;
75984;SDS011;65033;44.660;37.758;2023-03-01T02:32:28;4.72;;;4.22;;
75984;SDS011;65033;44.660;37.758;2023-03-01T02:33:32;4.72;;;3.65;;
75984;SDS011;65033;44.660;37.758;2023-03-01T02:34:38;4.03;;;3.60;;
75984;SDS011;65033;44.660;37.758;2023-03-01T02:35:42;4.72;;;4.05;;
75984;SDS011;65033;44.660;37.758;2023-03-01T02:36:47;4.32;;;3.92;;
75984;SDS011;65033;44.660;37.758;2023-03-01T02:37:53;4.43;;;3.78;;
75984;SDS011;65033;44.660;37.758;2023-03-01T02:38:59;4.88;;;3.70;;
75984;SDS011;65033;44.660;37.758;2023-03-01T02:40:07;4.60;;;3.60;;
75984;SDS011;65033;44.660;37.758;2023-03-01T02:41:16;3.90;;;3.50;;
75984;SDS011;65033;44.660;37.758;2023-03-01T02:42:22;3.90;;;3.50;;
75984;SDS011;65033;44.660;37.758;2023-03-01T02:43:30;4.80;;;3.92;;
75984;SDS011;65033;44.660;37.758;2023-03-01T02:44:36;4.72;;;4.13;;
75984;SDS011;65033;44.660;37.758;2023-03-01T02:45:43;4.10;;;3.70;;
75984;SDS011;65033;44.660;37.758;2023-03-01T02:46:52;5.43;;;4.20;;
75984;SDS011;65033;44.660;37.758;2023-03-01T02:47:58;4.55;;;3.53;;
75984;SDS011;65033;44.660;37.758;2023-03-01T02:49:15;4.20;;;3.80;;
75984;SDS011;65033;44.660;37.758;2023-03-01T02:50:25;4.82;;;3.83;;
75984;SDS011;65033;44.660;37.758;2023-03-01T02:51:48;4.25;;;3.63;;
75984;SDS011;65033;44.660;37.758;2023-03-01T02:53:05;4.53;;;4.00;;
75984;SDS011;65033;44.660;37.758;2023-03-01T02:54:17;5.32;;;3.70;;
75984;SDS011;65033;44.660;37.758;2023-03-01T02:55:27;5.43;;;3.88;;
75984;SDS011;65033;44.660;37.758;2023-03-01T02:56:31;4.30;;;3.80;;
75984;SDS011;65033;44.660;37.758;2023-03-01T02:57:35;4.00;;;3.60;;
75984;SDS011;65033;44.660;37.758;2023-03-01T02:58:41;4.95;;;3.80;;
75984;SDS011;65033;44.660;37.758;2023-03-01T02:59:50;4.30;;;3.83;;
75984;SDS011;65033;44.660;37.758;2023-03-01T03:00:55;3.88;;;3.42;;
75984;SDS011;65033;44.660;37.758;2023-03-01T03:02:01;4.65;;;3.67;;
75984;SDS011;65033;44.660;37.758;2023-03-01T03:03:06;4.05;;;3.65;;
75984;SDS011;65033;44.660;37.758;2023-03-01T03:04:10;4.57;;;3.90;;
75984;SDS011;65033;44.660;37.758;2023-03-01T03:05:22;3.65;;;3.35;;
75984;SDS011;65033;44.660;37.758;2023-03-01T03:06:30;3.92;;;3.50;;
75984;SDS011;65033;44.660;37.758;2023-03-01T03:07:34;4.63;;;4.20;;
75984;SDS011;65033;44.660;37.758;2023-03-01T03:08:39;4.63;;;3.42;;
75984;SDS011;65033;44.660;37.758;2023-03-01T03:09:42;4.03;;;3.35;;
75984;SDS011;65033;44.660;37.758;2023-03-01T03:10:47;4.70;;;4.20;;
75984;SDS011;65033;44.660;37.758;2023-03-01T03:11:50;4.03;;;3.60;;
75984;SDS011;65033;44.660;37.758;2023-03-01T03:12:54;4.38;;;3.60;;
75984;SDS011;65033;44.660;37.758;2023-03-01T03:14:00;5.60;;;3.90;;
75984;SDS011;65033;44.660;37.758;2023-03-01T03:15:06;4.78;;;3.67;;
75984;SDS011;65033;44.660;37.758;2023-03-01T03:16:11;4.53;;;3.80;;
75984;SDS011;65033;44.660;37.758;2023-03-01T03:17:14;4.30;;;3.80;;
75984;SDS011;65033;44.660;37.758;2023-03-01T03:18:17;4.97;;;4.30;;
75984;SDS011;65033;44.660;37.758;2023-03-01T03:19:21;4.07;;;3.55;;
75984;SDS011;65033;44.660;37.758;2023-03-01T03:20:24;4.90;;;3.75;;
75984;SDS011;65033;44.660;37.758;2023-03-01T03:21:29;4.28;;;3.88;;
75984;SDS011;65033;44.660;37.758;2023-03-01T03:22:32;4.35;;;3.53;;
75984;SDS011;65033;44.660;37.758;2023-03-01T03:23:36;4.45;;;3.58;;
75984;SDS011;65033;44.660;37.758;2023-03-01T03:24:39;5.05;;;3.88;;
75984;SDS011;65033;44.660;37.758;2023-03-01T03:25:42;4.90;;;3.80;;
75984;SDS011;65033;44.660;37.758;2023-03-01T03:26:46;4.20;;;3.80;;
75984;SDS011;65033;44.660;37.758;2023-03-01T03:27:49;4.82;;;3.80;;
75984;SDS011;65033;44.660;37.758;2023-03-01T03:28:59;4.53;;;3.60;;
75984;SDS011;65033;44.660;37.758;2023-03-01T03:30:02;4.30;;;3.47;;
75984;SDS011;65033;44.660;37.758;2023-03-01T03:31:11;5.07;;;3.78;;
75984;SDS011;65033;44.660;37.758;2023-03-01T03:32:14;5.38;;;3.95;;
75984;SDS011;65033;44.660;37.758;2023-03-01T03:33:17;3.85;;;3.40;;
75984;SDS011;65033;44.660;37.758;2023-03-01T03:34:20;4.45;;;3.55;;
75984;SDS011;65033;44.660;37.758;2023-03-01T03:35:25;5.13;;;3.90;;
75984;SDS011;65033;44.660;37.758;2023-03-01T03:36:30;4.60;;;4.18;;
75984;SDS011;65033;44.660;37.758;2023-03-01T03:37:33;3.85;;;3.15;;
75984;SDS011;65033;44.660;37.758;2023-03-01T03:38:55;4.88;;;3.47;;
75984;SDS011;65033;44.660;37.758;2023-03-01T03:39:58;3.63;;;3.33;;
75984;SDS011;65033;44.660;37.758;2023-03-01T03:41:02;4.45;;;3.80;;
75984;SDS011;65033;44.660;37.758;2023-03-01T03:42:07;3.95;;;3.35;;
75984;SDS011;65033;44.660;37.758;2023-03-01T03:43:10;4.07;;;3.65;;
75984;SDS011;65033;44.660;37.758;2023-03-01T03:44:15;4.15;;;3.75;;
75984;SDS011;65033;44.660;37.758;2023-03-01T03:45:20;3.80;;;3.40;;
75984;SDS011;65033;44.660;37.758;2023-03-01T03:46:23;4.47;;;3.53;;
75984;SDS011;65033;44.660;37.758;2023-03-01T03:47:26;3.80;;;3.22;;
75984;SDS011;65033;44.660;37.758;2023-03-01T03:48:30;11.63;;;10.43;;
75984;SDS011;65033;44.660;37.758;2023-03-01T03:49:33;14.30;;;12.60;;
75984;SDS011;65033;44.660;37.758;2023-03-01T03:50:36;15.13;;;12.27;;
75984;SDS011;65033;44.660;37.758;2023-03-01T03:51:40;9.75;;;8.65;;
75984;SDS011;65033;44.660;37.758;2023-03-01T03:52:44;7.05;;;5.90;;
75984;SDS011;65033;44.660;37.758;2023-03-01T03:53:47;6.15;;;5.43;;
75984;SDS011;65033;44.660;37.758;2023-03-01T03:54:51;7.55;;;5.90;;
75984;SDS011;65033;44.660;37.758;2023-03-01T03:55:54;8.82;;;6.28;;
75984;SDS011;65033;44.660;37.758;2023-03-01T03:56:57;7.00;;;6.30;;
75984;SDS011;65033;44.660;37.758;2023-03-01T03:58:01;8.60;;;6.88;;
75984;SDS011;65033;44.660;37.758;2023-03-01T03:59:09;7.88;;;7.07;;
75984;SDS011;65033;44.660;37.758;2023-03-01T04:00:14;7.70;;;6.75;;
75984;SDS011;65033;44.660;37.758;2023-03-01T04:01:19;6.80;;;6.00;;
75984;SDS011;65033;44.660;37.758;2023-03-01T04:02:23;6.90;;;6.20;;
75984;SDS011;65033;44.660;37.758;2023-03-01T04:03:27;7.75;;;6.47;;
75984;SDS011;65033;44.660;37.758;2023-03-01T04:04:32;7.25;;;6.35;;
75984;SDS011;65033;44.660;37.758;2023-03-01T04:05:35;8.02;;;7.03;;
75984;SDS011;65033;44.660;37.758;2023-03-01T04:06:38;8.32;;;7.00;;
75984;SDS011;65033;44.660;37.758;2023-03-01T04:07:42;8.48;;;7.15;;
75984;SDS011;65033;44.660;37.758;2023-03-01T04:08:46;8.35;;;7.45;;
75984;SDS011;65033;44.660;37.758;2023-03-01T04:09:49;8.05;;;7.25;;
75984;SDS011;65033;44.660;37.758;2023-03-01T04:10:56;9.27;;;7.85;;
75984;SDS011;65033;44.660;37.758;2023-03-01T04:12:03;11.38;;;8.07;;
75984;SDS011;65033;44.660;37.758;2023-03-01T04:13:07;9.80;;;8.80;;
75984;SDS011;65033;44.660;37.758;2023-03-01T04:14:13;11.10;;;9.15;;
75984;SDS011;65033;44.660;37.758;2023-03-01T04:15:17;12.30;;;9.43;;
75984;SDS011;65033;44.660;37.758;2023-03-01T04:16:23;11.88;;;8.38;;
75984;SDS011;65033;44.660;37.758;2023-03-01T04:17:27;9.45;;;8.45;;
75984;SDS011;65033;44.660;37.758;2023-03-01T04:18:30;9.77;;;8.77;;
75984;SDS011;65033;44.660;37.758;2023-03-01T04:19:33;10.00;;;8.95;;
75984;SDS011;65033;44.660;37.758;2023-03-01T04:20:38;10.52;;;9.43;;
75984;SDS011;65033;44.660;37.758;2023-03-01T04:21:42;10.07;;;9.02;;
75984;SDS011;65033;44.660;37.758;2023-03-01T04:22:45;10.85;;;9.35;;
75984;SDS011;65033;44.660;37.758;2023-03-01T04:23:49;12.13;;;9.27;;
75984;SDS011;65033;44.660;37.758;2023-03-01T04:24:55;12.32;;;9.55;;
75984;SDS011;65033;44.660;37.758;2023-03-01T04:25:58;10.23;;;8.95;;
75984;SDS011;65033;44.660;37.758;2023-03-01T04:27:02;12.00;;;9.05;;
75984;SDS011;65033;44.660;37.758;2023-03-01T04:28:05;12.05;;;9.68;;
75984;SDS011;65033;44.660;37.758;2023-03-01T04:29:09;9.98;;;8.98;;
75984;SDS011;65033;44.660;37.758;2023-03-01T04:30:13;10.90;;;9.18;;
75984;SDS011;65033;44.660;37.758;2023-03-01T04:31:17;11.68;;;10.35;;
75984;SDS011;65033;44.660;37.758;2023-03-01T04:32:25;10.70;;;9.60;;
75984;SDS011;65033;44.660;37.758;2023-03-01T04:33:28;10.63;;;8.73;;
75984;SDS011;65033;44.660;37.758;2023-03-01T04:34:32;11.25;;;9.48;;
75984;SDS011;65033;44.660;37.758;2023-03-01T04:35:35;24.55;;;14.93;;
75984;SDS011;65033;44.660;37.758;2023-03-01T04:36:40;19.90;;;16.95;;
75984;SDS011;65033;44.660;37.758;2023-03-01T04:37:43;20.00;;;17.20;;
75984;SDS011;65033;44.660;37.758;2023-03-01T04:38:47;18.15;;;14.15;;
75984;SDS011;65033;44.660;37.758;2023-03-01T04:39:51;13.25;;;11.55;;
75984;SDS011;65033;44.660;37.758;2023-03-01T04:40:54;13.15;;;11.55;;
75984;SDS011;65033;44.660;37.758;2023-03-01T04:41:58;15.07;;;11.52;;
75984;SDS011;65033;44.660;37.758;2023-03-01T04:43:02;12.68;;;11.10;;
75984;SDS011;65033;44.660;37.758;2023-03-01T04:44:06;13.32;;;11.20;;
75984;SDS011;65033;44.660;37.758;2023-03-01T04:45:11;12.88;;;11.57;;
75984;SDS011;65033;44.660;37.758;2023-03-01T04:46:16;12.90;;;11.20;;
75984;SDS011;65033;44.660;37.758;2023-03-01T04:47:20;15.00;;;12.05;;
75984;SDS011;65033;44.660;37.758;2023-03-01T04:48:25;15.48;;;13.15;;
75984;SDS011;65033;44.660;37.758;2023-03-01T04:49:28;15.18;;;13.15;;
75984;SDS011;65033;44.660;37.758;2023-03-01T04:50:32;14.55;;;13.05;;
75984;SDS011;65033;44.660;37.758;2023-03-01T04:51:35;16.58;;;13.32;;
75984;SDS011;65033;44.660;37.758;2023-03-01T04:52:39;16.52;;;13.70;;
75984;SDS011;65033;44.660;37.758;2023-03-01T04:53:43;13.85;;;12.38;;
75984;SDS011;65033;44.660;37.758;2023-03-01T04:54:46;15.00;;;13.40;;
75984;SDS011;65033;44.660;37.758;2023-03-01T04:55:50;15.95;;;13.40;;
75984;SDS011;65033;44.660;37.758;2023-03-01T04:56:53;15.15;;;13.32;;
75984;SDS011;65033;44.660;37.758;2023-03-01T04:57:57;14.18;;;12.13;;
75984;SDS011;65033;44.660;37.758;2023-03-01T04:59:00;16.23;;;13.75;;
75984;SDS011;65033;44.660;37.758;2023-03-01T05:00:09;13.57;;;11.88;;
75984;SDS011;65033;44.660;37.758;2023-03-01T05:01:23;15.27;;;13.02;;
75984;SDS011;65033;44.660;37.758;2023-03-01T05:02:28;14.15;;;12.65;;
75984;SDS011;65033;44.660;37.758;2023-03-01T05:03:33;14.88;;;12.80;;
75984;SDS011;65033;44.660;37.758;2023-03-01T05:04:36;15.23;;;13.20;;
75984;SDS011;65033;44.660;37.758;2023-03-01T05:05:40;14.98;;;13.32;;
75984;SDS011;65033;44.660;37.758;2023-03-01T05:06:44;14.50;;;12.63;;
75984;SDS011;65033;44.660;37.758;2023-03-01T05:07:47;21.90;;;16.00;;
75984;SDS011;65033;44.660;37.758;2023-03-01T05:08:50;28.35;;;20.27;;
75984;SDS011;65033;44.660;37.758;2023-03-01T05:09:54;21.77;;;19.35;;
75984;SDS011;65033;44.660;37.758;2023-03-01T05:10:58;19.73;;;17.63;;
75984;SDS011;65033;44.660;37.758;2023-03-01T05:12:02;18.33;;;16.00;;
75984;SDS011;65033;44.660;37.758;2023-03-01T05:13:06;19.70;;;16.65;;
75984;SDS011;65033;44.660;37.758;2023-03-01T05:14:10;16.83;;;15.05;;
75984;SDS011;65033;44.660;37.758;2023-03-01T05:15:14;17.35;;;15.45;;
75984;SDS011;65033;44.660;37.758;2023-03-01T05:16:17;18.05;;;15.50;;
75984;SDS011;65033;44.660;37.758;2023-03-01T05:17:22;15.80;;;14.10;;
75984;SDS011;65033;44.660;37.758;2023-03-01T05:18:27;17.35;;;14.90;;
75984;SDS011;65033;44.660;37.758;2023-03-01T05:19:34;17.67;;;15.60;;
75984;SDS011;65033;44.660;37.758;2023-03-01T05:20:38;16.00;;;14.18;;
75984;SDS011;65033;44.660;37.758;2023-03-01T05:21:41;17.90;;;15.02;;
75984;SDS011;65033;44.660;37.758;2023-03-01T05:23:04;16.42;;;14.73;;
75984;SDS011;65033;44.660;37.758;2023-03-01T05:24:08;17.00;;;15.20;;
75984;SDS011;65033;44.660;37.758;2023-03-01T05:25:14;18.30;;;15.32;;
75984;SDS011;65033;44.660;37.758;2023-03-01T05:26:18;16.98;;;15.18;;
75984;SDS011;65033;44.660;37.758;2023-03-01T05:27:30;17.33;;;15.52;;
75984;SDS011;65033;44.660;37.758;2023-03-01T05:28:33;18.30;;;15.07;;
75984;SDS011;65033;44.660;37.758;2023-03-01T05:29:37;18.05;;;15.15;;
75984;SDS011;65033;44.660;37.758;2023-03-01T05:30:42;17.02;;;15.10;;
75984;SDS011;65033;44.660;37.758;2023-03-01T05:31:45;18.00;;;15.95;;
75984;SDS011;65033;44.660;37.758;2023-03-01T05:32:49;18.10;;;15.48;;
75984;SDS011;65033;44.660;37.758;2023-03-01T05:33:58;17.17;;;15.38;;
75984;SDS011;65033;44.660;37.758;2023-03-01T05:35:03;17.33;;;15.20;;
75984;SDS011;65033;44.660;37.758;2023-03-01T05:36:08;16.98;;;15.20;;
75984;SDS011;65033;44.660;37.758;2023-03-01T05:37:13;20.25;;;15.38;;
75984;SDS011;65033;44.660;37.758;2023-03-01T05:38:16;15.88;;;14.13;;
75984;SDS011;65033;44.660;37.758;2023-03-01T05:39:20;17.05;;;15.15;;
75984;SDS011;65033;44.660;37.758;2023-03-01T05:40:25;20.35;;;18.23;;
75984;SDS011;65033;44.660;37.758;2023-03-01T05:41:28;18.23;;;16.25;;
75984;SDS011;65033;44.660;37.758;2023-03-01T05:42:32;19.35;;;16.83;;
75984;SDS011;65033;44.660;37.758;2023-03-01T05:43:35;17.15;;;15.35;;
75984;SDS011;65033;44.660;37.758;2023-03-01T05:44:38;19.27;;;17.02;;
75984;SDS011;65033;44.660;37.758;2023-03-01T05:45:43;20.33;;;16.73;;
75984;SDS011;65033;44.660;37.758;2023-03-01T05:46:47;17.90;;;15.05;;
75984;SDS011;65033;44.660;37.758;2023-03-01T05:47:51;17.40;;;15.60;;
75984;SDS011;65033;44.660;37.758;2023-03-01T05:48:54;17.88;;;15.63;;
75984;SDS011;65033;44.660;37.758;2023-03-01T05:49:59;18.92;;;16.30;;
75984;SDS011;65033;44.660;37.758;2023-03-01T05:51:04;18.80;;;16.35;;
75984;SDS011;65033;44.660;37.758;2023-03-01T05:52:08;18.40;;;15.70;;
75984;SDS011;65033;44.660;37.758;2023-03-01T05:53:13;18.92;;;16.17;;
75984;SDS011;65033;44.660;37.758;2023-03-01T05:54:18;17.77;;;15.88;;
75984;SDS011;65033;44.660;37.758;2023-03-01T05:55:22;16.90;;;15.10;;
75984;SDS011;65033;44.660;37.758;2023-03-01T05:56:26;18.60;;;16.55;;
75984;SDS011;65033;44.660;37.758;2023-03-01T05:57:29;17.48;;;15.68;;
75984;SDS011;65033;44.660;37.758;2023-03-01T05:58:33;17.70;;;15.60;;
75984;SDS011;65033;44.660;37.758;2023-03-01T05:59:36;19.38;;;15.10;;
75984;SDS011;65033;44.660;37.758;2023-03-01T06:00:40;18.25;;;15.75;;
75984;SDS011;65033;44.660;37.758;2023-03-01T06:01:44;17.77;;;15.88;;
75984;SDS011;65033;44.660;37.758;2023-03-01T06:02:49;18.05;;;15.15;;
75984;SDS011;65033;44.660;37.758;2023-03-01T06:03:54;17.33;;;15.52;;
75984;SDS011;65033;44.660;37.758;2023-03-01T06:04:59;17.70;;;15.80;;
75984;SDS011;65033;44.660;37.758;2023-03-01T06:06:05;16.90;;;15.10;;
75984;SDS011;65033;44.660;37.758;2023-03-01T06:07:08;16.38;;;14.73;;
75984;SDS011;65033;44.660;37.758;2023-03-01T06:08:11;17.25;;;14.93;;
75984;SDS011;65033;44.660;37.758;2023-03-01T06:09:15;16.60;;;14.85;;
75984;SDS011;65033;44.660;37.758;2023-03-01T06:10:19;16.63;;;14.77;;
75984;SDS011;65033;44.660;37.758;2023-03-01T06:11:24;17.83;;;15.40;;
75984;SDS011;65033;44.660;37.758;2023-03-01T06:12:30;17.20;;;15.45;;
75984;SDS011;65033;44.660;37.758;2023-03-01T06:13:33;16.17;;;14.50;;
75984;SDS011;65033;44.660;37.758;2023-03-01T06:14:37;16.13;;;14.10;;
75984;SDS011;65033;44.660;37.758;2023-03-01T06:15:40;19.95;;;15.02;;
75984;SDS011;65033;44.660;37.758;2023-03-01T06:16:44;16.70;;;15.00;;
75984;SDS011;65033;44.660;37.758;2023-03-01T06:17:47;16.75;;;15.05;;
75984;SDS011;65033;44.660;37.758;2023-03-01T06:18:51;16.35;;;14.60;;
75984;SDS011;65033;44.660;37.758;2023-03-01T06:19:54;16.75;;;14.57;;
75984;SDS011;65033;44.660;37.758;2023-03-01T06:20:58;16.42;;;14.07;;
75984;SDS011;65033;44.660;37.758;2023-03-01T06:22:03;15.30;;;13.63;;